createdAt,value
2022-12-31T00:01:45.681Z,6.45
2022-12-31T00:04:26.879Z,6.51
2022-12-31T00:07:26.280Z,6.61
2022-12-31T00:10:27.822Z,6.68
2022-12-31T00:13:17.062Z,6.73
2022-12-31T00:16:29.895Z,6.81
2022-12-31T00:19:18.851Z,6.91
2022-12-31T00:22:16.280Z,6.96
2022-12-31T00:24:48.140Z,7.00
2022-12-31T00:27:52.773Z,6.99
2022-12-31T00:30:52.514Z,6.99
2022-12-31T00:34:10.933Z,6.99
2022-12-31T00:36:51.254Z,7.02
2022-12-31T00:39:25.278Z,7.05
2022-12-31T00:41:57.888Z,7.07
2022-12-31T00:44:54.811Z,7.13
2022-12-31T00:47:53.078Z,7.14
2022-12-31T00:50:45.090Z,7.14
2022-12-31T00:53:49.988Z,7.14
2022-12-31T00:56:42.198Z,7.13
2022-12-31T01:02:23.803Z,7.17
2022-12-31T01:05:06.253Z,7.19
2022-12-31T01:08:12.619Z,7.19
2022-12-31T01:11:35.539Z,7.24
2022-12-31T01:21:04.028Z,7.31
2022-12-31T01:24:42.074Z,7.34
2022-12-31T01:27:49.169Z,7.36
2022-12-31T01:30:22.207Z,7.39
2022-12-31T01:36:56.142Z,7.43
2022-12-31T01:39:43.671Z,7.42
2022-12-31T01:42:20.960Z,7.40
2022-12-31T01:46:46.706Z,7.39
2022-12-31T01:48:50.793Z,7.40
2022-12-31T02:02:24.445Z,7.51
2022-12-31T02:05:19.425Z,7.53
2022-12-31T02:08:15.484Z,7.58
2022-12-31T02:11:46.805Z,7.60
2022-12-31T02:15:40.642Z,7.65
2022-12-31T02:19:05.600Z,7.71
2022-12-31T02:22:25.077Z,7.78
2022-12-31T02:26:02.519Z,7.84
2022-12-31T02:33:23.925Z,7.88
2022-12-31T02:36:50.828Z,7.87
2022-12-31T02:39:36.536Z,7.88
2022-12-31T02:42:38.867Z,7.85
2022-12-31T02:52:42.714Z,7.81
2022-12-31T02:56:15.851Z,7.83
2022-12-31T03:03:32.082Z,7.83
2022-12-31T03:06:51.254Z,7.86
2022-12-31T03:13:22.443Z,7.82
2022-12-31T03:16:08.026Z,7.80
2022-12-31T03:19:02.771Z,7.77
2022-12-31T03:22:25.550Z,7.73
2022-12-31T03:26:07.815Z,7.70
2022-12-31T03:29:22.483Z,7.70
2022-12-31T03:32:20.814Z,7.71
2022-12-31T03:35:19.238Z,7.70
2022-12-31T03:42:17.335Z,7.72
2022-12-31T03:45:27.553Z,7.74
2022-12-31T03:49:25.245Z,7.76
2022-12-31T03:52:30.559Z,7.78
2022-12-31T03:55:43.400Z,7.79
2022-12-31T03:59:07.149Z,7.78
2022-12-31T04:12:37.684Z,7.85
2022-12-31T04:15:47.543Z,7.88
2022-12-31T04:19:15.664Z,7.87
2022-12-31T04:23:00.248Z,7.86
2022-12-31T04:26:03.421Z,7.87
2022-12-31T04:35:47.849Z,8.01
2022-12-31T04:38:43.393Z,8.03
2022-12-31T04:41:57.462Z,8.03
2022-12-31T04:45:04.916Z,8.05
2022-12-31T04:58:58.062Z,8.23
2022-12-31T05:05:27.174Z,8.29
2022-12-31T05:08:36.660Z,8.30
2022-12-31T05:12:02.837Z,8.30
2022-12-31T05:15:15.198Z,8.27
2022-12-31T05:19:00.769Z,8.25
2022-12-31T05:22:12.389Z,8.26
2022-12-31T05:32:43.260Z,8.26
2022-12-31T05:36:54.618Z,8.23
2022-12-31T05:39:27.876Z,8.26
2022-12-31T05:49:37.504Z,8.33
2022-12-31T05:53:03.793Z,8.36
2022-12-31T05:56:06.812Z,8.37
2022-12-31T06:02:28.367Z,8.35
2022-12-31T06:05:25.866Z,8.30
2022-12-31T06:08:14.846Z,8.28
2022-12-31T06:18:31.102Z,8.30
2022-12-31T06:21:11.415Z,8.27
2022-12-31T06:23:50.566Z,8.26
2022-12-31T06:26:52.544Z,8.31
2022-12-31T06:30:14.532Z,8.38
2022-12-31T06:33:06.484Z,8.39
2022-12-31T06:38:51.958Z,8.48
2022-12-31T06:41:28.550Z,8.56
2022-12-31T06:44:19.178Z,8.67
2022-12-31T06:46:52.432Z,8.76
2022-12-31T06:49:26.686Z,8.82
2022-12-31T06:52:01.332Z,8.88
2022-12-31T06:54:45.112Z,8.92
2022-12-31T06:57:30.440Z,8.94
2022-12-31T07:00:00.725Z,8.92
2022-12-31T07:03:10.680Z,8.89
2022-12-31T07:06:03.994Z,8.83
2022-12-31T07:08:36.693Z,8.74
2022-12-31T07:11:12.491Z,8.66
2022-12-31T07:14:07.205Z,8.57
2022-12-31T07:17:14.302Z,8.49
2022-12-31T07:20:03.033Z,8.45
2022-12-31T07:22:31.672Z,8.44
2022-12-31T07:25:00.551Z,8.44
2022-12-31T07:28:08.082Z,8.45
2022-12-31T07:30:54.947Z,8.48
2022-12-31T07:33:49.039Z,8.49
2022-12-31T07:36:20.340Z,8.52
2022-12-31T07:39:07.395Z,8.53
2022-12-31T07:41:51.632Z,8.54
2022-12-31T07:44:23.323Z,8.54
2022-12-31T07:46:58.021Z,8.57
2022-12-31T07:49:29.804Z,8.62
2022-12-31T07:51:58.389Z,8.67
2022-12-31T07:54:26.721Z,8.75
2022-12-31T07:56:55.462Z,8.85
2022-12-31T07:59:51.975Z,8.97
2022-12-31T08:02:50.456Z,9.10
2022-12-31T08:05:31.094Z,9.21
2022-12-31T08:08:25.335Z,9.31
2022-12-31T08:11:09.017Z,9.43
2022-12-31T08:13:38.572Z,9.54
2022-12-31T08:16:13.595Z,9.65
2022-12-31T08:18:42.759Z,9.75
2022-12-31T08:21:41.465Z,9.79
2022-12-31T08:24:39.095Z,9.85
2022-12-31T08:27:29.806Z,9.97
2022-12-31T08:30:17.506Z,10.06
2022-12-31T08:33:09.596Z,10.10
2022-12-31T08:35:56.553Z,10.13
2022-12-31T08:38:50.002Z,10.16
2022-12-31T08:41:29.121Z,10.21
2022-12-31T08:44:06.812Z,10.24
2022-12-31T08:46:50.748Z,10.27
2022-12-31T08:49:19.997Z,10.29
2022-12-31T08:51:48.694Z,10.33
2022-12-31T08:54:17.477Z,10.40
2022-12-31T08:56:57.483Z,10.46
2022-12-31T08:59:52.725Z,10.54
2022-12-31T09:02:34.494Z,10.61
2022-12-31T09:05:17.869Z,10.67
2022-12-31T09:08:14.721Z,10.70
2022-12-31T09:11:26.427Z,10.73
2022-12-31T09:14:21.572Z,10.79
2022-12-31T09:17:21.318Z,10.84
2022-12-31T09:19:50.247Z,10.90
2022-12-31T09:22:19.222Z,10.99
2022-12-31T09:24:48.022Z,11.07
2022-12-31T09:27:33.343Z,11.11
2022-12-31T09:30:17.831Z,11.20
2022-12-31T09:33:08.532Z,11.30
2022-12-31T09:36:03.399Z,11.42
2022-12-31T09:38:49.104Z,11.53
2022-12-31T09:41:36.175Z,11.60
2022-12-31T09:44:07.587Z,11.65
2022-12-31T09:46:59.236Z,11.69
2022-12-31T09:49:57.337Z,11.77
2022-12-31T09:52:48.647Z,11.83
2022-12-31T09:55:45.750Z,11.90
2022-12-31T09:58:35.577Z,11.96
2022-12-31T10:01:22.860Z,12.00
2022-12-31T10:03:51.602Z,12.03
2022-12-31T10:06:32.451Z,12.08
2022-12-31T10:09:26.559Z,12.14
2022-12-31T10:12:19.321Z,12.14
2022-12-31T10:15:29.269Z,12.16
2022-12-31T10:18:23.508Z,12.19
2022-12-31T10:21:27.561Z,12.22
2022-12-31T10:23:58.470Z,12.27
2022-12-31T10:27:10.680Z,12.31
2022-12-31T10:29:58.223Z,12.33
2022-12-31T10:32:34.999Z,12.35
2022-12-31T10:35:30.621Z,12.35
2022-12-31T10:39:01.198Z,12.39
2022-12-31T10:41:59.146Z,12.42
2022-12-31T10:44:57.548Z,12.44
2022-12-31T10:47:41.885Z,12.46
2022-12-31T10:50:41.982Z,12.48
2022-12-31T10:53:34.776Z,12.50
2022-12-31T10:56:15.534Z,12.51
2022-12-31T10:59:10.573Z,12.53
2022-12-31T11:02:11.133Z,12.55
2022-12-31T11:04:59.497Z,12.61
2022-12-31T11:08:06.426Z,12.64
2022-12-31T11:11:08.745Z,12.69
2022-12-31T11:13:58.295Z,12.76
2022-12-31T11:16:30.033Z,12.82
2022-12-31T11:19:17.962Z,12.87
2022-12-31T11:22:13.566Z,12.97
2022-12-31T11:24:51.518Z,13.07
2022-12-31T11:27:54.128Z,13.15
2022-12-31T11:30:33.085Z,13.21
2022-12-31T11:33:15.383Z,13.22
2022-12-31T11:36:02.221Z,13.25
2022-12-31T11:38:40.994Z,13.30
2022-12-31T11:41:19.767Z,13.35
2022-12-31T11:44:13.136Z,13.39
2022-12-31T11:46:41.783Z,13.45
2022-12-31T11:49:50.908Z,13.47
2022-12-31T11:52:47.044Z,13.54
2022-12-31T11:55:18.311Z,13.62
2022-12-31T11:57:51.908Z,13.67
2022-12-31T12:00:27.164Z,13.72
2022-12-31T12:03:08.599Z,13.81
2022-12-31T12:05:39.647Z,13.91
2022-12-31T12:08:08.058Z,13.96
2022-12-31T12:10:47.660Z,13.99
2022-12-31T12:13:27.627Z,14.00
2022-12-31T12:16:03.093Z,14.04
2022-12-31T12:18:51.225Z,14.13
2022-12-31T12:21:33.019Z,14.24
2022-12-31T12:24:19.255Z,14.32
2022-12-31T12:26:50.750Z,14.41
2022-12-31T12:29:24.705Z,14.48
2022-12-31T12:32:01.739Z,14.50
2022-12-31T12:34:32.361Z,14.52
2022-12-31T12:37:01.374Z,14.55
2022-12-31T12:39:33.519Z,14.57
2022-12-31T12:42:14.192Z,14.57
2022-12-31T12:44:47.062Z,14.56
2022-12-31T12:47:17.905Z,14.56
2022-12-31T12:49:47.926Z,14.56
2022-12-31T12:52:25.313Z,14.58
2022-12-31T12:55:03.602Z,14.60
2022-12-31T12:58:00.158Z,14.60
2022-12-31T13:01:04.114Z,14.59
2022-12-31T13:07:20.274Z,14.53
2022-12-31T13:10:14.674Z,14.51
2022-12-31T13:13:25.896Z,14.50
2022-12-31T13:16:25.472Z,14.50
2022-12-31T13:19:16.552Z,14.51
2022-12-31T13:22:25.710Z,14.55
2022-12-31T13:25:26.993Z,14.60
2022-12-31T13:28:05.896Z,14.63
2022-12-31T13:30:45.995Z,14.67
2022-12-31T13:33:31.083Z,14.68
2022-12-31T13:36:12.890Z,14.72
2022-12-31T13:38:57.501Z,14.75
2022-12-31T13:41:47.652Z,14.82
2022-12-31T13:44:28.314Z,14.87
2022-12-31T13:47:16.687Z,14.94
2022-12-31T13:49:59.767Z,14.96
2022-12-31T13:52:38.023Z,15.00
2022-12-31T13:55:15.189Z,15.07
2022-12-31T13:57:54.736Z,15.19
2022-12-31T14:00:50.253Z,15.27
2022-12-31T14:04:10.598Z,15.40
2022-12-31T14:06:50.594Z,15.53
2022-12-31T14:09:34.310Z,15.56
2022-12-31T14:12:29.208Z,15.62
2022-12-31T14:15:27.852Z,15.67
2022-12-31T14:18:13.024Z,15.80
2022-12-31T14:21:04.987Z,15.91
2022-12-31T14:24:01.602Z,15.92
2022-12-31T14:26:41.096Z,15.89
2022-12-31T14:29:12.834Z,15.84
2022-12-31T14:31:55.465Z,15.85
2022-12-31T14:34:48.092Z,15.91
2022-12-31T14:37:45.075Z,15.90
2022-12-31T14:40:52.396Z,15.92
2022-12-31T14:43:43.128Z,15.89
2022-12-31T14:47:06.705Z,15.88
2022-12-31T14:49:43.800Z,15.90
2022-12-31T14:52:35.080Z,15.96
2022-12-31T14:55:36.812Z,15.95
2022-12-31T14:58:50.583Z,16.00
2022-12-31T15:01:29.517Z,15.94
2022-12-31T15:04:19.287Z,15.91
2022-12-31T15:08:26.690Z,15.88
2022-12-31T15:11:34.686Z,15.77
2022-12-31T15:18:46.079Z,15.81
2022-12-31T15:21:27.925Z,15.74
2022-12-31T15:23:58.715Z,15.80
2022-12-31T15:26:34.981Z,15.85
2022-12-31T15:29:08.487Z,15.86
2022-12-31T15:31:45.030Z,15.86
2022-12-31T15:34:25.856Z,15.85
2022-12-31T15:37:00.510Z,15.80
2022-12-31T15:39:32.535Z,15.77
2022-12-31T15:45:03.093Z,15.69
2022-12-31T15:47:31.855Z,15.63
2022-12-31T15:50:07.361Z,15.66
2022-12-31T15:52:53.902Z,15.66
2022-12-31T15:55:28.044Z,15.62
2022-12-31T15:58:02.659Z,15.56
2022-12-31T16:00:53.318Z,15.50
2022-12-31T16:03:25.190Z,15.51
2022-12-31T16:06:00.233Z,15.58
2022-12-31T16:08:32.663Z,15.59
2022-12-31T16:11:07.376Z,15.61
2022-12-31T16:13:41.367Z,15.62
2022-12-31T16:16:20.148Z,15.61
2022-12-31T16:18:50.480Z,15.57
2022-12-31T16:21:38.969Z,15.57
2022-12-31T16:24:23.728Z,15.60
2022-12-31T16:26:55.229Z,15.59
2022-12-31T16:29:25.188Z,15.58
2022-12-31T16:31:54.713Z,15.64
2022-12-31T16:34:26.316Z,15.62
2022-12-31T16:37:04.695Z,15.65
2022-12-31T16:39:35.948Z,15.68
2022-12-31T16:42:22.025Z,15.73
2022-12-31T16:44:52.941Z,15.73
2022-12-31T16:47:34.465Z,15.70
2022-12-31T16:50:08.145Z,15.66
2022-12-31T16:52:49.621Z,15.60
2022-12-31T16:55:19.967Z,15.56
2022-12-31T16:57:56.696Z,15.57
2022-12-31T17:00:26.960Z,15.54
2022-12-31T17:03:15.830Z,15.53
2022-12-31T17:06:07.533Z,15.53
2022-12-31T17:08:56.086Z,15.49
2022-12-31T17:11:34.055Z,15.39
2022-12-31T17:14:05.731Z,15.35
2022-12-31T17:16:36.912Z,15.31
2022-12-31T17:19:05.517Z,15.29
2022-12-31T17:21:34.165Z,15.26
2022-12-31T17:24:06.798Z,15.22
2022-12-31T17:26:38.380Z,15.18
2022-12-31T17:29:08.332Z,15.17
2022-12-31T17:31:43.434Z,15.13
2022-12-31T17:34:17.272Z,15.07
2022-12-31T19:20:46.012Z,14.06
2022-12-31T19:23:20.677Z,14.04
2022-12-31T19:25:50.169Z,14.02
2022-12-31T19:28:21.296Z,14.00
2022-12-31T19:30:49.967Z,14.01
2022-12-31T19:33:18.219Z,14.01
2022-12-31T19:35:47.185Z,14.01
2022-12-31T19:38:22.312Z,13.97
2022-12-31T19:40:52.266Z,13.95
2022-12-31T19:43:23.516Z,13.94
2022-12-31T19:45:53.730Z,13.92
2022-12-31T19:48:32.103Z,13.91
2022-12-31T19:51:01.153Z,13.91
2022-12-31T19:53:29.435Z,13.90
2022-12-31T19:55:57.670Z,13.92
2022-12-31T19:58:27.179Z,13.92
2022-12-31T20:01:02.436Z,13.90
2022-12-31T20:03:33.383Z,13.89
2022-12-31T20:06:09.845Z,13.93
2022-12-31T20:08:39.730Z,13.93
2022-12-31T20:11:10.177Z,13.92
2022-12-31T20:13:39.774Z,13.92
2022-12-31T20:16:14.252Z,13.92
2022-12-31T20:18:44.629Z,13.93
2022-12-31T20:21:15.676Z,13.94
2022-12-31T20:23:43.941Z,13.95
2022-12-31T20:26:12.825Z,13.93
2022-12-31T20:28:41.607Z,13.91
2022-12-31T20:31:16.316Z,13.92
2022-12-31T20:33:45.140Z,13.90
2022-12-31T20:36:16.202Z,13.91
2022-12-31T20:38:45.128Z,13.93
2022-12-31T20:41:19.327Z,13.93
2022-12-31T20:43:48.940Z,13.91
2022-12-31T20:46:25.440Z,13.91
2022-12-31T20:48:56.760Z,13.95
2022-12-31T20:51:27.078Z,13.96
2022-12-31T20:53:58.220Z,13.96
2022-12-31T20:56:29.941Z,13.93
2022-12-31T20:58:58.260Z,13.92
2022-12-31T21:01:41.467Z,13.90
2022-12-31T21:04:15.436Z,13.84
2022-12-31T21:06:44.228Z,13.76
2022-12-31T21:09:12.475Z,13.69
2022-12-31T21:11:59.432Z,13.65
2022-12-31T21:14:27.700Z,13.64
2022-12-31T21:16:55.929Z,13.62
2022-12-31T21:19:24.578Z,13.60
2022-12-31T21:21:53.191Z,13.56
2022-12-31T21:24:24.028Z,13.54
2022-12-31T21:26:55.716Z,13.53
2022-12-31T21:29:23.894Z,13.53
2022-12-31T21:31:53.107Z,13.53
2022-12-31T21:34:21.970Z,13.51
2022-12-31T21:36:50.205Z,13.45
2022-12-31T21:39:18.379Z,13.43
2022-12-31T21:41:52.697Z,13.41
2022-12-31T21:44:26.273Z,13.39
2022-12-31T21:47:34.961Z,13.36
2022-12-31T21:50:06.895Z,13.35
2022-12-31T21:52:36.674Z,13.35
2022-12-31T21:55:24.954Z,13.35
2022-12-31T21:58:25.221Z,13.36
2022-12-31T22:01:00.552Z,13.37
2022-12-31T22:03:28.957Z,13.39
2022-12-31T22:06:14.778Z,13.41
2022-12-31T22:08:45.879Z,13.39
2022-12-31T22:11:16.108Z,13.38
2022-12-31T22:13:45.326Z,13.38
2022-12-31T22:16:14.543Z,13.40
2022-12-31T22:18:44.340Z,13.39
2022-12-31T22:21:20.226Z,13.39
2022-12-31T22:23:52.485Z,13.39
2022-12-31T22:26:25.012Z,13.41
2022-12-31T22:28:54.861Z,13.43
2022-12-31T22:31:28.195Z,13.41
2022-12-31T22:33:58.371Z,13.41
2022-12-31T22:36:26.899Z,13.42
2022-12-31T22:38:58.340Z,13.43
2022-12-31T22:41:28.345Z,13.45
2022-12-31T22:44:03.570Z,13.47
2022-12-31T22:46:33.678Z,13.47
2022-12-31T22:49:05.107Z,13.49
2022-12-31T22:51:56.484Z,13.50
2022-12-31T22:54:21.923Z,13.47
2022-12-31T22:56:50.151Z,13.46
2022-12-31T22:59:18.288Z,13.49
2022-12-31T23:01:48.758Z,13.57
2022-12-31T23:04:17.692Z,13.61
2022-12-31T23:06:46.700Z,13.62
2022-12-31T23:09:35.672Z,13.62
2022-12-31T23:12:10.411Z,13.60
2022-12-31T23:14:57.446Z,13.59
2022-12-31T23:17:48.177Z,13.64
2022-12-31T23:20:39.777Z,13.66
2022-12-31T23:23:12.798Z,13.62
2022-12-31T23:25:41.544Z,13.58
2022-12-31T23:28:14.166Z,13.57
2022-12-31T23:30:43.608Z,13.54
2022-12-31T23:33:29.739Z,13.53
2022-12-31T23:36:05.885Z,13.54
2022-12-31T23:38:34.322Z,13.56
2022-12-31T23:41:15.106Z,13.60
2022-12-31T23:43:44.930Z,13.63
2022-12-31T23:46:14.144Z,13.65
2022-12-31T23:48:43.111Z,13.68
2022-12-31T23:51:11.890Z,13.72
2022-12-31T23:53:40.129Z,13.76
2022-12-31T23:56:15.012Z,13.78
2022-12-31T23:58:44.633Z,13.83
